• Join FlightAware (Why Join?)
  • Login
  • US Flag 
12:28PM EDT


 

Airport Tracker/Info


-or-


 

Live Flight TrackerFlight Track Log ✈ SKW6534 ✈ 27-Apr-2013 ✈ KIDA - KDEN

Flight Track Log - Related Links

Times and Time Zones

All times are in EDT time to prevent confusion due to time zone crossing. See the SKW6534 flight status page for this flight to view local times or setup timezone preferences in your user account.

Time Position Orientation Groundspeed Altitude Reporting Facility
EDT Latitude Longitude Course Direction KTS MPH feet Rate Location/Type
03:28PM 43.5350 -112.1475 321° Northwest 249 287 7,900  Level Salt Lake Center
03:29PM 43.5600 -112.0647 67° East 268 308 9,800 1,860 Climbing Salt Lake Center
03:30PM 43.3093 -111.6865 127° Southeast  Level FlightAware Approximate
03:30PM 43.4847 -111.9911 145° Southeast 293 337 11,800  Level Salt Lake Center
03:31PM 43.2453 -111.5690 127° Southeast  Level FlightAware Approximate
03:32PM 43.1813 -111.4517 127° Southeast  Level FlightAware Approximate
03:32PM 43.4281 -111.8939 129° Southeast 332 382 13,900  Level Salt Lake Center
03:33PM 43.1173 -111.3345 127° Southeast  Level FlightAware Approximate
03:33PM 43.3653 -111.7753 126° Southeast 345 397 15,900  Level Salt Lake Center
03:34PM 43.3081 -111.6706 127° Southeast 352 405 17,600 1,320 Climbing Salt Lake Center
03:35PM 43.2467 -111.5583 127° Southeast 371 427 18,700 1,260 Climbing Salt Lake Center
03:36PM 43.1733 -111.4239 127° Southeast 393 452 20,300 1,440 Climbing Salt Lake Center
03:37PM 43.1097 -111.3053 126° Southeast 402 463 21,700 1,320 Climbing Salt Lake Center
03:38PM 43.0350 -111.1678 127° Southeast 404 465 23,100 1,260 Climbing Salt Lake Center
03:39PM 42.9694 -111.0492 127° Southeast 406 467 24,300 1,020 Climbing Salt Lake Center
03:40PM 42.9031 -110.9278 127° Southeast 413 475 25,300 1,020 Climbing Salt Lake Center
03:41PM 42.8247 -110.7864 127° Southeast 418 481 26,400 960 Climbing Salt Lake Center
03:42PM 42.7578 -110.6653 127° Southeast 418 481 27,300 780 Climbing Salt Lake Center
03:43PM 42.6758 -110.5222 128° Southeast 426 490 28,000 600 Climbing Salt Lake Center
03:44PM 42.6050 -110.3944 127° Southeast 437 503 28,600 600 Climbing Salt Lake Center
03:45PM 42.5206 -110.2439 127° Southeast 446 513 29,300 600 Climbing Salt Lake Center
03:46PM 42.4467 -110.1136 128° Southeast 452 520 29,900 540 Climbing Salt Lake Center
03:47PM 42.3731 -109.9836 127° Southeast 454 522 30,500 480 Climbing Salt Lake Center
03:48PM 42.2875 -109.8331 127° Southeast 452 520 31,000 240 Climbing Salt Lake Center
03:49PM 42.2128 -109.7006 127° Southeast 460 529 31,000  Level Salt Lake Center
03:50PM 42.1233 -109.5444 128° Southeast 469 540 31,000  Level Salt Lake Center
03:51PM 42.0458 -109.4100 128° Southeast 473 544 31,000  Level Salt Lake Center
03:52PM 41.9681 -109.2750 128° Southeast 475 547 31,000  Level Salt Lake Center
03:53PM 41.8758 -109.1175 128° Southeast 478 550 31,000  Level Salt Lake Center
03:54PM 41.7978 -108.9828 128° Southeast 477 549 31,000  Level Salt Lake Center
03:55PM 41.7183 -108.8492 129° Southeast 475 547 31,000  Level Salt Lake Center
03:56PM 41.6261 -108.6917 128° Southeast 477 549 31,000  Level Salt Lake Center
03:57PM 41.5517 -108.5542 126° Southeast 476 548 31,000  Level Salt Lake Center
03:58PM 41.4978 -108.4019 115° Southeast 475 547 31,000  Level Salt Lake Center
03:59PM 41.4339 -108.2258 116° Southeast 472 543 31,000  Level Salt Lake Center
04:00PM 41.3786 -108.0767 116° Southeast 471 542 31,000  Level Salt Lake Center
04:01PM 41.3133 -107.9000 116° Southeast 476 548 31,000  Level Salt Lake Center
04:02PM 41.2672 -107.7758 116° Southeast 469 540 31,000  Level Denver Center
04:03PM 41.2111 -107.6297 117° Southeast 464 534 31,000  Level Denver Center
04:04PM 41.1478 -107.4589 116° Southeast 462 532 31,000  Level Denver Center
04:05PM 41.0917 -107.3125 117° Southeast 463 533 31,000  Level Denver Center
04:06PM 41.0269 -107.1419 117° Southeast 464 534 31,000  Level Denver Center
04:07PM 40.9719 -106.9972 117° Southeast 461 531 31,000  Level Denver Center
04:08PM 40.9161 -106.8525 117° Southeast 462 532 31,000  Level Denver Center
04:09PM 40.8506 -106.6833 117° Southeast 463 533 31,000  Level Denver Center
04:10PM 40.7944 -106.5386 117° Southeast 462 532 31,000  Level Denver Center
04:11PM 40.7336 -106.3836 117° Southeast 462 532 31,000 -240 Level Denver Center
04:12PM 40.6675 -106.2153 117° Southeast 462 532 30,600 -1,260 Descending Denver Center
04:13PM 40.6061 -106.0578 117° Southeast 466 536 28,500 -2,040 Descending Denver Center
04:14PM 40.5453 -105.9072 118° Southeast 462 532 26,500 -1,920 Descending Denver Center
04:15PM 40.4869 -105.7606 118° Southeast 453 521 24,600 -1,680 Descending Denver Center
04:16PM 40.4306 -105.6197 118° Southeast 435 501 23,100 -1,500 Descending Denver Center
04:17PM 40.3794 -105.4953 118° Southeast 390 449 21,600 -1,620 Descending Denver Center
04:18PM 40.3189 -105.3767 124° Southeast 360 414 19,900 -1,560 Descending Denver Center
04:20PM 40.2578 -105.2828 130° Southeast 342 394 18,400 -1,500 Descending Denver Center
04:21PM 40.1969 -105.1861 129° Southeast 345 397 16,900 -1,260 Descending Denver Center
04:22PM 40.1469 -105.1092 130° Southeast 332 382 15,900 -1,260 Descending Denver Center
04:23PM 40.0728 -104.9936 130° Southeast 336 387 14,400 -1,320 Descending Denver Center
04:24PM 40.0153 -104.9044 130° Southeast 321 369 13,200 -1,140 Descending Denver Center
04:25PM 39.9517 -104.8147 133° Southeast 313 360 12,100 -1,080 Descending Denver Center
04:26PM 39.8703 -104.8075 176° South 301 346 11,100 -540 Descending Denver Center
04:27PM 39.7881 -104.8097 181° South 272 313 11,000 -240 Descending Denver Center
04:28PM 39.7183 -104.8111 181° South 253 291 10,700 -840 Descending Denver Center
04:29PM 39.6450 -104.8119 181° South 243 280 9,400 -840 Descending Denver Center
04:30PM 39.5947 -104.7736 150° Southeast 228 262 9,000 -540 Descending Denver Center
04:31PM 39.6342 -104.7147 49° Northeast 221 254 8,400 -600 Descending Denver Center